createdAt,value
2023-05-10T00:02:19.679Z,4.78
2023-05-10T00:04:47.005Z,4.05
2023-05-10T00:07:14.423Z,7.10
2023-05-10T00:09:41.697Z,5.28
2023-05-10T00:12:09.102Z,7.43
2023-05-10T00:14:36.522Z,6.80
2023-05-10T00:17:04.002Z,12.70
2023-05-10T00:19:31.376Z,5.45
2023-05-10T00:21:58.762Z,5.38
2023-05-10T00:24:26.206Z,9.38
2023-05-10T00:26:53.540Z,10.13
2023-05-10T00:29:20.868Z,11.85
2023-05-10T00:31:48.242Z,10.05
2023-05-10T00:34:15.802Z,9.90
2023-05-10T00:36:43.209Z,8.05
2023-05-10T00:39:10.672Z,10.25
2023-05-10T00:41:38.270Z,8.45
2023-05-10T00:44:05.553Z,7.55
2023-05-10T00:46:33.347Z,12.52
2023-05-10T00:49:01.038Z,7.35
2023-05-10T00:51:28.597Z,11.98
2023-05-10T00:53:57.265Z,14.68
2023-05-10T00:56:25.608Z,13.45
2023-05-10T00:58:53.169Z,12.25
2023-05-10T01:01:21.035Z,11.43
2023-05-10T01:03:48.580Z,12.65
2023-05-10T01:06:15.921Z,12.75
2023-05-10T01:08:43.340Z,11.23
2023-05-10T01:11:11.125Z,11.88
2023-05-10T01:13:41.983Z,11.70
2023-05-10T01:16:09.777Z,12.52
2023-05-10T01:18:40.359Z,11.20
2023-05-10T01:21:33.089Z,11.13
2023-05-10T01:24:37.772Z,10.02
2023-05-10T01:27:18.697Z,9.05
2023-05-10T01:30:15.583Z,12.43
2023-05-10T01:32:57.053Z,15.95
2023-05-10T01:35:48.754Z,16.70
2023-05-10T01:38:28.301Z,14.52
2023-05-10T01:41:10.755Z,11.63
2023-05-10T01:44:08.434Z,28.65
2023-05-10T01:46:40.646Z,11.10
2023-05-10T01:49:21.594Z,13.43
2023-05-10T01:51:55.730Z,15.68
2023-05-10T01:54:24.391Z,16.92
2023-05-10T01:57:01.217Z,15.93
2023-05-10T01:59:32.731Z,18.80
2023-05-10T02:02:02.273Z,17.70
2023-05-10T02:04:30.455Z,21.00
2023-05-10T02:06:58.508Z,19.80
2023-05-10T02:09:28.606Z,13.50
2023-05-10T02:11:58.209Z,14.57
2023-05-10T02:14:27.960Z,14.65
2023-05-10T02:16:57.198Z,17.52
2023-05-10T02:19:25.221Z,12.20
2023-05-10T02:21:53.249Z,18.30
2023-05-10T02:24:22.673Z,17.38
2023-05-10T02:26:52.266Z,12.93
2023-05-10T02:29:20.612Z,17.25
2023-05-10T02:31:48.533Z,13.50
2023-05-10T02:34:16.110Z,16.38
2023-05-10T02:36:43.986Z,10.60
2023-05-10T02:39:13.792Z,18.15
2023-05-10T02:41:43.144Z,12.50
2023-05-10T02:44:10.870Z,14.40
2023-05-10T02:46:38.824Z,15.05
2023-05-10T02:49:06.779Z,11.10
2023-05-10T02:51:37.371Z,14.52
2023-05-10T02:54:35.449Z,9.60
2023-05-10T02:57:05.594Z,16.23
2023-05-10T02:59:33.877Z,15.25
2023-05-10T03:02:01.710Z,11.85
2023-05-10T03:04:29.153Z,10.55
2023-05-10T03:06:56.724Z,13.55
2023-05-10T03:09:24.233Z,7.88
2023-05-10T03:12:04.442Z,11.45
2023-05-10T03:14:53.962Z,13.02
2023-05-10T03:17:31.568Z,8.73
2023-05-10T03:20:04.397Z,12.07
2023-05-10T03:22:40.943Z,10.30
2023-05-10T03:25:11.880Z,16.48
2023-05-10T03:27:42.623Z,11.32
2023-05-10T03:30:13.107Z,10.13
2023-05-10T03:32:40.892Z,8.18
2023-05-10T03:35:13.871Z,15.73
2023-05-10T03:37:41.170Z,8.00
2023-05-10T03:40:09.654Z,9.40
2023-05-10T03:42:37.128Z,13.57
2023-05-10T03:45:04.761Z,14.80
2023-05-10T03:47:32.673Z,10.32
2023-05-10T03:49:59.971Z,13.00
2023-05-10T03:52:27.361Z,13.35
2023-05-10T03:54:54.654Z,11.63
2023-05-10T03:57:22.032Z,10.00
2023-05-10T03:59:49.420Z,12.10
2023-05-10T04:02:16.966Z,9.70
2023-05-10T04:04:44.568Z,12.40
2023-05-10T04:07:12.016Z,11.75
2023-05-10T04:09:39.297Z,9.85
2023-05-10T04:12:08.435Z,8.82
2023-05-10T04:14:36.807Z,12.82
2023-05-10T04:17:04.431Z,13.35
2023-05-10T04:19:32.440Z,9.02
2023-05-10T04:22:00.431Z,13.88
2023-05-10T04:24:27.754Z,15.82
2023-05-10T04:26:57.634Z,9.45
2023-05-10T04:29:25.430Z,13.50
2023-05-10T04:31:52.737Z,8.40
2023-05-10T04:34:22.085Z,10.00
2023-05-10T04:36:49.579Z,16.27
2023-05-10T04:39:16.908Z,10.05
2023-05-10T04:41:44.374Z,10.73
2023-05-10T04:44:11.646Z,12.57
2023-05-10T04:46:39.041Z,17.38
2023-05-10T04:49:06.676Z,11.82
2023-05-10T04:51:33.946Z,10.18
2023-05-10T04:54:06.480Z,20.42
2023-05-10T04:56:35.517Z,8.63
2023-05-10T04:59:02.843Z,12.93
2023-05-10T05:01:30.434Z,8.85
2023-05-10T05:03:57.996Z,15.38
2023-05-10T05:06:26.156Z,11.88
2023-05-10T05:08:53.527Z,11.93
2023-05-10T05:11:21.993Z,10.10
2023-05-10T05:13:49.524Z,12.73
2023-05-10T05:16:16.898Z,8.73
2023-05-10T05:18:44.360Z,16.42
2023-05-10T05:21:21.336Z,7.82
2023-05-10T05:23:48.669Z,17.33
2023-05-10T05:26:16.463Z,13.65
2023-05-10T05:28:44.380Z,14.68
2023-05-10T05:31:11.787Z,24.08
2023-05-10T05:33:39.201Z,24.80
2023-05-10T05:36:06.899Z,14.95
2023-05-10T05:38:34.757Z,15.10
2023-05-10T05:41:02.644Z,17.17
2023-05-10T05:43:30.131Z,17.73
2023-05-10T05:45:59.155Z,16.83
2023-05-10T05:48:26.819Z,18.00
2023-05-10T05:50:57.684Z,16.45
2023-05-10T05:53:25.379Z,18.65
2023-05-10T05:55:57.135Z,19.55
2023-05-10T05:58:25.357Z,17.60
2023-05-10T06:00:53.180Z,12.90
2023-05-10T06:03:20.870Z,16.33
2023-05-10T06:05:49.425Z,19.15
2023-05-10T06:08:16.750Z,16.42
2023-05-10T06:10:44.214Z,14.70
2023-05-10T06:13:11.900Z,16.35
2023-05-10T06:15:39.630Z,15.27
2023-05-10T06:18:07.312Z,21.30
2023-05-10T06:20:34.730Z,22.63
2023-05-10T06:23:02.082Z,20.55
2023-05-10T06:25:29.341Z,18.40
2023-05-10T06:27:58.899Z,25.27
2023-05-10T06:30:29.651Z,27.30
2023-05-10T06:32:57.948Z,17.15
2023-05-10T06:35:25.576Z,24.15
2023-05-10T06:37:52.910Z,21.02
2023-05-10T06:40:20.480Z,27.27
2023-05-10T06:42:49.137Z,20.48
2023-05-10T06:45:17.317Z,27.85
2023-05-10T06:47:45.029Z,26.42
2023-05-10T06:50:12.827Z,24.40
2023-05-10T06:52:40.573Z,33.20
2023-05-10T06:55:08.416Z,26.45
2023-05-10T06:57:36.163Z,35.15
2023-05-10T07:00:06.046Z,22.98
2023-05-10T07:02:33.769Z,31.63
2023-05-10T07:05:03.196Z,34.35
2023-05-10T07:07:31.111Z,25.88
2023-05-10T07:09:59.005Z,23.48
2023-05-10T07:12:26.602Z,22.23
2023-05-10T07:14:54.315Z,27.73
2023-05-10T07:17:22.026Z,24.35
2023-05-10T07:19:49.770Z,23.75
2023-05-10T07:22:17.915Z,32.45
2023-05-10T07:24:45.994Z,28.92
2023-05-10T07:27:22.062Z,29.92
2023-05-10T07:29:49.613Z,25.10
2023-05-10T07:32:17.194Z,30.27
2023-05-10T07:34:44.812Z,26.08
2023-05-10T07:37:12.592Z,23.38
2023-05-10T07:39:39.965Z,16.80
2023-05-10T07:42:08.307Z,26.88
2023-05-10T07:44:35.600Z,15.77
2023-05-10T07:47:03.262Z,18.92
2023-05-10T07:49:30.630Z,25.30
2023-05-10T07:51:58.088Z,15.05
2023-05-10T07:54:25.427Z,24.58
2023-05-10T07:56:52.791Z,19.25
2023-05-10T07:59:21.084Z,20.30
2023-05-10T08:01:48.536Z,24.52
2023-05-10T08:04:16.553Z,27.98
2023-05-10T08:06:43.912Z,21.55
2023-05-10T08:09:11.996Z,22.58
2023-05-10T08:11:40.764Z,22.55
2023-05-10T08:14:08.037Z,16.38
2023-05-10T08:16:35.571Z,18.25
2023-05-10T08:19:03.060Z,14.73
2023-05-10T08:21:32.232Z,18.23
2023-05-10T08:23:59.634Z,25.92
2023-05-10T08:26:27.051Z,11.23
2023-05-10T08:28:55.300Z,17.88
2023-05-10T08:31:22.665Z,19.15
2023-05-10T08:33:50.186Z,14.95
2023-05-10T08:36:22.436Z,19.98
2023-05-10T08:38:52.757Z,17.65
2023-05-10T08:41:27.461Z,15.68
2023-05-10T08:43:55.778Z,24.75
2023-05-10T08:46:24.579Z,15.25
2023-05-10T08:48:55.353Z,20.48
2023-05-10T08:51:29.226Z,13.68
2023-05-10T08:53:57.520Z,12.75
2023-05-10T08:56:25.195Z,15.15
2023-05-10T08:58:52.715Z,14.55
2023-05-10T09:01:21.766Z,15.60
2023-05-10T09:03:49.578Z,16.30
2023-05-10T09:06:17.213Z,21.23
2023-05-10T09:08:45.846Z,13.50
2023-05-10T09:11:14.412Z,11.32
2023-05-10T09:13:42.855Z,23.13
2023-05-10T09:16:20.961Z,27.63
2023-05-10T09:18:49.053Z,24.02
2023-05-10T09:21:16.732Z,13.18
2023-05-10T09:23:48.241Z,16.85
2023-05-10T09:26:17.252Z,17.88
2023-05-10T09:28:54.637Z,16.27
2023-05-10T09:31:22.189Z,16.60
2023-05-10T09:33:50.520Z,18.85
2023-05-10T09:36:18.364Z,19.38
2023-05-10T09:38:53.682Z,10.60
2023-05-10T09:41:23.584Z,15.63
2023-05-10T09:43:56.070Z,22.17
2023-05-10T09:46:23.955Z,12.68
2023-05-10T09:48:51.344Z,27.00
2023-05-10T09:51:22.967Z,10.60
2023-05-10T09:54:19.108Z,14.50
2023-05-10T09:56:46.848Z,12.25
2023-05-10T09:59:14.163Z,12.63
2023-05-10T10:01:42.275Z,13.20
2023-05-10T10:04:10.958Z,9.90
2023-05-10T10:06:39.463Z,8.13
2023-05-10T10:09:08.349Z,16.02
2023-05-10T10:11:37.356Z,13.02
2023-05-10T10:14:06.591Z,9.52
2023-05-10T10:16:34.636Z,15.20
2023-05-10T10:19:02.258Z,13.35
2023-05-10T10:21:29.743Z,11.60
2023-05-10T10:23:57.556Z,14.10
2023-05-10T10:26:26.117Z,13.73
2023-05-10T10:29:10.287Z,10.40
2023-05-10T10:31:52.163Z,9.68
2023-05-10T10:34:29.634Z,9.68
2023-05-10T10:36:58.516Z,11.70
2023-05-10T10:39:26.393Z,6.03
2023-05-10T10:41:58.427Z,6.53
2023-05-10T10:44:41.479Z,10.15
2023-05-10T10:47:22.016Z,7.53
2023-05-10T10:50:14.215Z,10.50
2023-05-10T10:52:42.905Z,6.78
2023-05-10T10:55:15.509Z,10.57
2023-05-10T10:57:48.827Z,12.10
2023-05-10T11:00:23.391Z,7.20
2023-05-10T11:03:07.843Z,13.65
2023-05-10T11:05:41.513Z,11.32
2023-05-10T11:08:17.465Z,13.20
2023-05-10T11:11:01.644Z,11.60
2023-05-10T11:13:39.754Z,10.45
2023-05-10T11:16:22.820Z,12.00
2023-05-10T11:19:00.275Z,10.70
2023-05-10T11:21:27.826Z,7.65
2023-05-10T11:23:57.740Z,9.95
2023-05-10T11:26:35.722Z,18.50
2023-05-10T11:29:05.523Z,10.70
2023-05-10T11:31:33.327Z,8.70
2023-05-10T11:34:04.512Z,8.13
2023-05-10T11:36:36.151Z,10.25
2023-05-10T11:39:04.561Z,11.30
2023-05-10T11:41:33.597Z,11.77
2023-05-10T11:44:00.996Z,15.05
2023-05-10T11:46:29.416Z,8.60
2023-05-10T11:49:05.959Z,7.70
2023-05-10T11:51:36.837Z,10.30
2023-05-10T11:54:10.496Z,11.75
2023-05-10T11:56:42.163Z,6.97
2023-05-10T11:59:09.613Z,8.15
2023-05-10T12:01:37.929Z,10.73
2023-05-10T12:04:06.543Z,11.02
2023-05-10T12:06:41.504Z,8.20
2023-05-10T12:09:09.572Z,13.52
2023-05-10T12:11:43.915Z,7.95
2023-05-10T12:14:12.318Z,9.52
2023-05-10T12:16:39.700Z,10.07
2023-05-10T12:19:07.151Z,10.50
2023-05-10T12:21:34.813Z,7.60
2023-05-10T12:24:06.405Z,9.85
2023-05-10T12:26:33.817Z,6.60
2023-05-10T12:29:18.298Z,8.68
2023-05-10T12:31:58.228Z,13.63
2023-05-10T12:34:27.489Z,4.75
2023-05-10T12:36:55.667Z,8.57
2023-05-10T12:39:23.185Z,9.05
2023-05-10T12:41:50.549Z,11.00
2023-05-10T12:44:18.579Z,5.78
2023-05-10T12:46:45.950Z,10.93
2023-05-10T12:49:13.220Z,10.23
2023-05-10T12:51:41.559Z,7.63
2023-05-10T12:54:08.875Z,5.95
2023-05-10T12:56:36.190Z,7.07
2023-05-10T12:59:03.455Z,8.88
2023-05-10T13:01:30.931Z,8.82
2023-05-10T13:03:58.656Z,7.70
2023-05-10T13:06:26.045Z,7.95
2023-05-10T13:08:53.355Z,8.93
2023-05-10T13:11:26.653Z,4.18
2023-05-10T13:13:53.954Z,8.25
2023-05-10T13:16:21.536Z,10.80
2023-05-10T13:18:48.891Z,6.43
2023-05-10T13:21:16.429Z,12.90
2023-05-10T13:23:43.747Z,9.45
2023-05-10T13:26:11.303Z,4.53
2023-05-10T13:28:39.917Z,8.40
2023-05-10T13:31:07.247Z,8.15
2023-05-10T13:33:34.932Z,8.88
2023-05-10T13:36:02.232Z,8.48
2023-05-10T13:38:29.631Z,7.93
2023-05-10T13:40:56.887Z,5.82
2023-05-10T13:43:25.128Z,9.48
2023-05-10T13:45:53.269Z,12.60
2023-05-10T13:48:20.679Z,10.82
2023-05-10T13:50:48.161Z,10.93
2023-05-10T13:53:16.085Z,6.85
2023-05-10T13:55:43.350Z,10.32
2023-05-10T13:58:10.620Z,14.55
2023-05-10T14:00:37.968Z,8.73
2023-05-10T14:03:06.344Z,10.95
2023-05-10T14:05:33.820Z,10.10
2023-05-10T14:08:01.152Z,7.47
2023-05-10T14:10:28.506Z,5.30
2023-05-10T14:12:56.264Z,5.60
2023-05-10T14:15:23.689Z,5.63
2023-05-10T14:17:51.070Z,10.32
2023-05-10T14:20:18.522Z,11.82
2023-05-10T14:22:45.873Z,8.95
2023-05-10T14:25:13.732Z,7.68
2023-05-10T14:27:41.089Z,9.45
2023-05-10T14:30:09.018Z,5.07
2023-05-10T14:32:38.003Z,6.47
2023-05-10T14:35:07.052Z,5.60
2023-05-10T14:37:35.581Z,3.85
2023-05-10T14:40:05.458Z,2.60
2023-05-10T14:42:33.102Z,5.05
2023-05-10T14:45:00.430Z,8.23
2023-05-10T14:47:28.327Z,4.70
2023-05-10T14:49:55.656Z,3.95
2023-05-10T14:52:22.930Z,6.15
2023-05-10T14:54:50.208Z,3.17
2023-05-10T14:57:17.687Z,7.05
2023-05-10T14:59:45.014Z,4.68
2023-05-10T15:02:14.703Z,4.70
2023-05-10T15:04:42.509Z,3.58
2023-05-10T15:07:10.242Z,6.78
2023-05-10T15:09:37.757Z,3.80
2023-05-10T15:12:05.022Z,5.20
2023-05-10T15:14:33.930Z,7.28
2023-05-10T15:17:01.208Z,3.10
2023-05-10T15:19:29.803Z,4.47
2023-05-10T15:21:57.143Z,4.70
2023-05-10T15:24:24.606Z,7.80
2023-05-10T15:26:51.859Z,3.85
2023-05-10T15:29:20.975Z,5.72
2023-05-10T15:31:50.600Z,7.50
2023-05-10T15:34:18.908Z,5.97
2023-05-10T15:36:46.806Z,4.53
2023-05-10T15:39:14.160Z,9.05
2023-05-10T15:41:41.577Z,5.93
2023-05-10T15:44:08.991Z,5.13
2023-05-10T15:46:39.004Z,10.25
2023-05-10T15:49:07.020Z,5.10
2023-05-10T15:51:36.638Z,5.68
2023-05-10T15:54:07.683Z,3.85
2023-05-10T15:56:36.342Z,5.13
2023-05-10T15:59:03.995Z,5.85
2023-05-10T16:01:32.658Z,3.88
2023-05-10T16:04:01.044Z,7.07
2023-05-10T16:06:28.616Z,8.52
2023-05-10T16:08:55.947Z,3.95
2023-05-10T16:11:23.282Z,4.40
2023-05-10T16:13:50.677Z,4.82
2023-05-10T16:16:18.244Z,3.75
2023-05-10T16:18:45.831Z,4.65
2023-05-10T16:21:13.289Z,3.67
2023-05-10T16:23:40.812Z,4.35
2023-05-10T16:26:08.886Z,7.60
2023-05-10T16:28:36.263Z,5.10
2023-05-10T16:31:03.964Z,9.55
2023-05-10T16:33:31.387Z,5.60
2023-05-10T16:35:58.813Z,4.65
2023-05-10T16:38:26.673Z,4.32
2023-05-10T16:40:53.975Z,3.03
2023-05-10T16:43:22.878Z,3.05
2023-05-10T16:45:51.368Z,6.47
2023-05-10T16:48:18.814Z,8.38
2023-05-10T16:50:46.618Z,7.60
2023-05-10T16:53:14.128Z,9.18
2023-05-10T16:55:41.541Z,6.38
2023-05-10T16:58:08.903Z,5.82
2023-05-10T17:00:36.374Z,11.45
2023-05-10T17:03:04.328Z,10.57
2023-05-10T17:05:32.692Z,6.57
2023-05-10T17:08:00.100Z,5.82
2023-05-10T17:10:28.837Z,5.25
2023-05-10T17:12:56.264Z,9.60
2023-05-10T17:15:23.735Z,9.48
2023-05-10T17:17:51.202Z,11.60
2023-05-10T17:20:18.949Z,9.57
2023-05-10T17:22:46.333Z,14.30
2023-05-10T17:25:13.656Z,11.60
2023-05-10T17:27:41.158Z,10.70
2023-05-10T17:30:09.122Z,6.93
2023-05-10T17:32:36.528Z,7.15
2023-05-10T17:35:05.272Z,10.25
2023-05-10T17:37:33.137Z,8.43
2023-05-10T17:40:00.847Z,4.93
2023-05-10T17:42:28.159Z,10.77
2023-05-10T17:44:55.642Z,13.52
2023-05-10T17:47:23.016Z,10.27
2023-05-10T17:49:50.525Z,24.02
2023-05-10T17:52:17.927Z,17.45
2023-05-10T17:54:45.791Z,7.45
2023-05-10T17:57:13.333Z,11.00
2023-05-10T17:59:41.147Z,3.83
2023-05-10T18:11:25.558Z,5.93
2023-05-10T18:13:53.088Z,3.13
2023-05-10T18:16:20.449Z,4.50
2023-05-10T18:18:47.983Z,8.05
2023-05-10T18:21:15.437Z,3.50
2023-05-10T18:23:42.852Z,6.60
2023-05-10T18:26:11.598Z,5.03
2023-05-10T18:28:40.110Z,7.43
2023-05-10T18:31:09.025Z,4.78
2023-05-10T18:33:36.440Z,5.45
2023-05-10T18:36:04.214Z,4.20
2023-05-10T18:38:31.577Z,8.00
2023-05-10T18:41:01.184Z,4.00
2023-05-10T18:43:28.952Z,4.25
2023-05-10T18:45:56.316Z,6.15
2023-05-10T18:48:23.635Z,6.00
2023-05-10T18:51:00.543Z,10.07
2023-05-10T18:53:28.016Z,9.10
2023-05-10T18:55:57.824Z,14.00
2023-05-10T18:58:28.902Z,7.45
2023-05-10T19:00:56.675Z,6.95
2023-05-10T19:03:24.185Z,5.75
2023-05-10T19:05:51.892Z,6.90
2023-05-10T19:08:19.307Z,14.98
2023-05-10T19:10:46.893Z,11.55
2023-05-10T19:13:15.131Z,7.93
2023-05-10T19:15:42.974Z,6.75
2023-05-10T19:18:10.707Z,15.80
2023-05-10T19:20:39.731Z,12.00
2023-05-10T19:23:10.066Z,5.53
2023-05-10T19:25:39.454Z,5.35
2023-05-10T19:28:10.223Z,10.02
2023-05-10T19:30:38.111Z,12.13
2023-05-10T19:33:07.138Z,10.52
2023-05-10T19:35:34.691Z,13.00
2023-05-10T19:38:02.251Z,6.97
2023-05-10T19:40:29.543Z,10.40
2023-05-10T19:42:57.173Z,7.90
2023-05-10T19:45:24.669Z,6.30
2023-05-10T19:47:52.425Z,9.05
2023-05-10T19:50:20.038Z,10.27
2023-05-10T19:52:48.163Z,7.18
2023-05-10T19:55:26.312Z,9.00
2023-05-10T19:57:53.725Z,10.57
2023-05-10T20:00:21.393Z,9.18
2023-05-10T20:02:49.561Z,9.90
2023-05-10T20:05:17.262Z,11.70
2023-05-10T20:07:46.237Z,9.38
2023-05-10T20:10:13.769Z,10.00
2023-05-10T20:12:41.275Z,16.40
2023-05-10T20:15:08.722Z,8.77
2023-05-10T20:17:36.569Z,12.20
2023-05-10T20:20:04.107Z,10.90
2023-05-10T20:22:31.816Z,9.95
2023-05-10T20:24:59.162Z,13.02
2023-05-10T20:27:27.310Z,14.35
2023-05-10T20:29:54.646Z,16.48
2023-05-10T20:32:22.022Z,13.77
2023-05-10T20:34:49.957Z,12.65
2023-05-10T20:37:17.974Z,14.95
2023-05-10T20:39:45.522Z,11.57
2023-05-10T20:42:12.846Z,12.52
2023-05-10T20:44:40.280Z,14.75
2023-05-10T20:47:08.274Z,16.63
2023-05-10T20:49:37.916Z,15.63
2023-05-10T20:52:05.762Z,18.70
2023-05-10T20:54:33.254Z,14.85
2023-05-10T20:57:02.124Z,14.50
2023-05-10T20:59:29.656Z,11.85
2023-05-10T21:01:58.772Z,17.10
2023-05-10T21:04:26.316Z,12.88
2023-05-10T21:06:53.656Z,17.83
2023-05-10T21:09:22.201Z,11.90
2023-05-10T21:11:50.808Z,16.70
2023-05-10T21:14:18.404Z,11.65
2023-05-10T21:16:45.880Z,9.52
2023-05-10T21:19:13.201Z,14.23
2023-05-10T21:21:40.590Z,16.45
2023-05-10T21:24:08.089Z,14.32
2023-05-10T21:26:35.447Z,13.68
2023-05-10T21:29:04.929Z,10.75
2023-05-10T21:31:32.744Z,9.68
2023-05-10T21:34:00.200Z,8.20
2023-05-10T21:36:27.948Z,8.05
2023-05-10T21:38:55.412Z,5.90
2023-05-10T21:41:22.862Z,8.65
2023-05-10T21:43:50.245Z,10.10
2023-05-10T21:46:17.849Z,6.30
2023-05-10T21:48:45.368Z,8.25
2023-05-10T21:51:12.777Z,6.97
2023-05-10T21:53:41.098Z,9.10
2023-05-10T21:56:08.425Z,7.28
2023-05-10T21:58:35.905Z,6.22
2023-05-10T22:01:03.342Z,6.28
2023-05-10T22:03:30.947Z,6.85
2023-05-10T22:05:58.812Z,6.90
2023-05-10T22:08:26.319Z,7.20
2023-05-10T22:10:53.700Z,3.65
2023-05-10T22:13:21.304Z,5.25
2023-05-10T22:15:48.653Z,6.57
2023-05-10T22:18:16.016Z,6.68
2023-05-10T22:20:46.800Z,8.15
2023-05-10T22:23:14.550Z,8.48
2023-05-10T22:25:42.037Z,7.75
2023-05-10T22:28:09.632Z,9.73
2023-05-10T22:30:37.039Z,7.03
2023-05-10T22:33:04.405Z,4.53
2023-05-10T22:35:31.916Z,6.22
2023-05-10T22:37:59.223Z,5.75
2023-05-10T22:40:27.395Z,5.35
2023-05-10T22:42:54.732Z,4.20
2023-05-10T22:45:22.028Z,7.35
2023-05-10T22:47:49.414Z,7.43
2023-05-10T22:50:17.076Z,5.22
2023-05-10T22:52:51.472Z,3.60
2023-05-10T22:55:18.880Z,32.53
2023-05-10T22:57:46.229Z,4.20
2023-05-10T23:00:14.286Z,6.30
2023-05-10T23:02:47.531Z,5.88
2023-05-10T23:05:14.924Z,10.73
2023-05-10T23:08:54.575Z,10.63
2023-05-10T23:11:24.773Z,3.45
2023-05-10T23:13:52.125Z,7.72
2023-05-10T23:16:19.628Z,18.05
2023-05-10T23:18:47.064Z,11.82
2023-05-10T23:21:14.538Z,9.02
2023-05-10T23:23:41.943Z,12.75
2023-05-10T23:26:09.596Z,9.23
2023-05-10T23:28:37.008Z,7.88
2023-05-10T23:31:04.463Z,8.65
2023-05-10T23:33:31.815Z,18.48
2023-05-10T23:35:59.162Z,10.00
2023-05-10T23:38:27.079Z,9.60
2023-05-10T23:40:54.489Z,11.13
2023-05-10T23:43:21.915Z,12.00
2023-05-10T23:45:58.708Z,10.07
2023-05-10T23:48:26.151Z,10.60
2023-05-10T23:50:53.511Z,7.78
2023-05-10T23:53:21.015Z,8.25
2023-05-10T23:55:48.422Z,15.15
2023-05-10T23:58:15.758Z,6.72
